sensor_id;sensor_type;location;lat;lon;timestamp;temperature;humidity
35645;DHT22;21764;52.042;6.830;2023-04-24T00:03:08;10.90;99.90
35645;DHT22;21764;52.042;6.830;2023-04-24T00:08:09;10.80;99.90
35645;DHT22;21764;52.042;6.830;2023-04-24T00:13:10;10.80;99.90
35645;DHT22;21764;52.042;6.830;2023-04-24T00:18:12;10.80;99.90
35645;DHT22;21764;52.042;6.830;2023-04-24T00:23:13;10.70;99.90
35645;DHT22;21764;52.042;6.830;2023-04-24T00:28:13;10.70;99.90
35645;DHT22;21764;52.042;6.830;2023-04-24T00:33:14;10.60;99.90
35645;DHT22;21764;52.042;6.830;2023-04-24T00:38:15;10.70;99.90
35645;DHT22;21764;52.042;6.830;2023-04-24T00:43:16;10.80;99.90
35645;DHT22;21764;52.042;6.830;2023-04-24T00:48:17;10.80;99.90
35645;DHT22;21764;52.042;6.830;2023-04-24T00:53:18;10.80;99.90
35645;DHT22;21764;52.042;6.830;2023-04-24T00:58:19;10.80;99.90
35645;DHT22;21764;52.042;6.830;2023-04-24T01:03:21;10.80;99.90
35645;DHT22;21764;52.042;6.830;2023-04-24T01:08:24;10.80;99.90
35645;DHT22;21764;52.042;6.830;2023-04-24T01:13:26;10.80;99.90
35645;DHT22;21764;52.042;6.830;2023-04-24T01:18:27;10.80;99.90
35645;DHT22;21764;52.042;6.830;2023-04-24T01:23:28;10.80;99.90
35645;DHT22;21764;52.042;6.830;2023-04-24T01:28:29;10.80;99.90
35645;DHT22;21764;52.042;6.830;2023-04-24T01:33:29;10.80;99.90
35645;DHT22;21764;52.042;6.830;2023-04-24T01:38:30;10.80;99.90
35645;DHT22;21764;52.042;6.830;2023-04-24T01:43:31;10.80;99.90
35645;DHT22;21764;52.042;6.830;2023-04-24T01:48:33;10.70;99.90
35645;DHT22;21764;52.042;6.830;2023-04-24T01:53:34;10.70;99.90
35645;DHT22;21764;52.042;6.830;2023-04-24T01:58:36;10.70;99.90
35645;DHT22;21764;52.042;6.830;2023-04-24T02:03:37;10.80;99.90
35645;DHT22;21764;52.042;6.830;2023-04-24T02:08:38;10.70;99.90
35645;DHT22;21764;52.042;6.830;2023-04-24T02:13:39;10.70;99.90
35645;DHT22;21764;52.042;6.830;2023-04-24T02:18:40;10.70;99.90
35645;DHT22;21764;52.042;6.830;2023-04-24T02:23:41;10.60;99.90
35645;DHT22;21764;52.042;6.830;2023-04-24T02:28:41;10.60;99.90
35645;DHT22;21764;52.042;6.830;2023-04-24T02:33:42;10.60;99.90
35645;DHT22;21764;52.042;6.830;2023-04-24T02:38:43;10.40;99.90
35645;DHT22;21764;52.042;6.830;2023-04-24T02:43:43;10.40;99.90
35645;DHT22;21764;52.042;6.830;2023-04-24T02:48:44;10.40;99.90
35645;DHT22;21764;52.042;6.830;2023-04-24T02:53:45;10.30;99.90
35645;DHT22;21764;52.042;6.830;2023-04-24T02:58:45;10.30;99.90
35645;DHT22;21764;52.042;6.830;2023-04-24T03:03:46;10.20;99.90
35645;DHT22;21764;52.042;6.830;2023-04-24T03:08:47;10.20;99.90
35645;DHT22;21764;52.042;6.830;2023-04-24T03:13:48;10.20;99.90
35645;DHT22;21764;52.042;6.830;2023-04-24T03:18:48;10.00;99.90
35645;DHT22;21764;52.042;6.830;2023-04-24T03:23:49;10.00;99.90
35645;DHT22;21764;52.042;6.830;2023-04-24T03:28:49;9.90;99.90
35645;DHT22;21764;52.042;6.830;2023-04-24T03:33:50;9.90;99.90
35645;DHT22;21764;52.042;6.830;2023-04-24T03:38:51;9.90;99.90
35645;DHT22;21764;52.042;6.830;2023-04-24T03:43:52;9.90;99.90
35645;DHT22;21764;52.042;6.830;2023-04-24T03:48:52;9.90;99.90
35645;DHT22;21764;52.042;6.830;2023-04-24T03:53:53;9.90;99.90
35645;DHT22;21764;52.042;6.830;2023-04-24T03:58:54;10.00;99.90
35645;DHT22;21764;52.042;6.830;2023-04-24T04:03:55;10.00;99.90
35645;DHT22;21764;52.042;6.830;2023-04-24T04:08:56;10.00;99.90
35645;DHT22;21764;52.042;6.830;2023-04-24T04:13:57;10.00;99.90
35645;DHT22;21764;52.042;6.830;2023-04-24T04:18:58;10.00;99.90
35645;DHT22;21764;52.042;6.830;2023-04-24T04:23:59;9.90;99.90
35645;DHT22;21764;52.042;6.830;2023-04-24T04:29:00;9.90;99.90
35645;DHT22;21764;52.042;6.830;2023-04-24T04:34:03;9.90;99.90
35645;DHT22;21764;52.042;6.830;2023-04-24T04:39:04;9.90;99.90
35645;DHT22;21764;52.042;6.830;2023-04-24T04:44:05;9.90;99.90
35645;DHT22;21764;52.042;6.830;2023-04-24T04:49:05;10.00;99.90
35645;DHT22;21764;52.042;6.830;2023-04-24T04:54:06;10.00;99.90
35645;DHT22;21764;52.042;6.830;2023-04-24T04:59:07;10.00;99.90
35645;DHT22;21764;52.042;6.830;2023-04-24T05:04:08;10.20;99.90
35645;DHT22;21764;52.042;6.830;2023-04-24T05:09:09;10.20;99.90
35645;DHT22;21764;52.042;6.830;2023-04-24T05:14:10;10.10;99.90
35645;DHT22;21764;52.042;6.830;2023-04-24T05:19:12;10.10;99.90
35645;DHT22;21764;52.042;6.830;2023-04-24T05:24:14;10.10;99.90
35645;DHT22;21764;52.042;6.830;2023-04-24T05:29:15;9.90;99.90
35645;DHT22;21764;52.042;6.830;2023-04-24T05:34:15;9.90;99.90
35645;DHT22;21764;52.042;6.830;2023-04-24T05:39:17;10.00;99.90
35645;DHT22;21764;52.042;6.830;2023-04-24T05:44:17;9.80;99.90
35645;DHT22;21764;52.042;6.830;2023-04-24T05:49:18;9.90;99.90
35645;DHT22;21764;52.042;6.830;2023-04-24T05:54:19;10.00;99.90
35645;DHT22;21764;52.042;6.830;2023-04-24T05:59:19;10.00;99.90
35645;DHT22;21764;52.042;6.830;2023-04-24T06:04:20;10.10;99.90
35645;DHT22;21764;52.042;6.830;2023-04-24T06:09:22;10.20;99.90
35645;DHT22;21764;52.042;6.830;2023-04-24T06:14:23;10.20;99.90
35645;DHT22;21764;52.042;6.830;2023-04-24T06:19:25;10.40;99.90
35645;DHT22;21764;52.042;6.830;2023-04-24T06:24:28;10.70;99.90
35645;DHT22;21764;52.042;6.830;2023-04-24T06:29:29;11.10;99.90
35645;DHT22;21764;52.042;6.830;2023-04-24T06:34:30;11.00;99.90
35645;DHT22;21764;52.042;6.830;2023-04-24T06:39:31;10.90;99.90
35645;DHT22;21764;52.042;6.830;2023-04-24T06:44:31;10.90;99.90
35645;DHT22;21764;52.042;6.830;2023-04-24T06:49:32;10.80;99.90
35645;DHT22;21764;52.042;6.830;2023-04-24T06:54:33;10.70;99.90
35645;DHT22;21764;52.042;6.830;2023-04-24T06:59:34;10.90;99.90
35645;DHT22;21764;52.042;6.830;2023-04-24T07:04:35;10.80;99.90
35645;DHT22;21764;52.042;6.830;2023-04-24T07:09:35;11.60;99.90
35645;DHT22;21764;52.042;6.830;2023-04-24T07:14:39;11.90;99.90
35645;DHT22;21764;52.042;6.830;2023-04-24T07:19:40;12.10;99.90
35645;DHT22;21764;52.042;6.830;2023-04-24T07:24:41;12.70;99.90
35645;DHT22;21764;52.042;6.830;2023-04-24T07:29:41;12.40;99.90
35645;DHT22;21764;52.042;6.830;2023-04-24T07:34:42;11.70;99.90
35645;DHT22;21764;52.042;6.830;2023-04-24T07:39:43;11.30;99.90
35645;DHT22;21764;52.042;6.830;2023-04-24T07:44:43;11.00;99.90
35645;DHT22;21764;52.042;6.830;2023-04-24T07:49:44;10.90;99.90
35645;DHT22;21764;52.042;6.830;2023-04-24T07:54:46;10.90;99.90
35645;DHT22;21764;52.042;6.830;2023-04-24T07:59:46;10.70;99.90
35645;DHT22;21764;52.042;6.830;2023-04-24T08:04:47;10.60;99.90
35645;DHT22;21764;52.042;6.830;2023-04-24T08:09:48;10.40;99.90
35645;DHT22;21764;52.042;6.830;2023-04-24T08:14:49;10.40;99.90
35645;DHT22;21764;52.042;6.830;2023-04-24T08:19:49;10.50;99.90
35645;DHT22;21764;52.042;6.830;2023-04-24T08:24:51;10.50;99.90
35645;DHT22;21764;52.042;6.830;2023-04-24T08:29:55;10.50;99.90
35645;DHT22;21764;52.042;6.830;2023-04-24T08:34:56;10.60;99.90
35645;DHT22;21764;52.042;6.830;2023-04-24T08:39:57;10.70;99.90
35645;DHT22;21764;52.042;6.830;2023-04-24T08:44:58;10.90;99.90
35645;DHT22;21764;52.042;6.830;2023-04-24T08:49:59;11.00;99.90
35645;DHT22;21764;52.042;6.830;2023-04-24T08:55:03;10.90;99.90
35645;DHT22;21764;52.042;6.830;2023-04-24T09:00:05;10.80;99.90
35645;DHT22;21764;52.042;6.830;2023-04-24T09:05:07;10.70;99.90
35645;DHT22;21764;52.042;6.830;2023-04-24T09:10:08;10.70;99.90
35645;DHT22;21764;52.042;6.830;2023-04-24T09:15:09;10.80;99.90
35645;DHT22;21764;52.042;6.830;2023-04-24T09:20:10;10.60;99.90
35645;DHT22;21764;52.042;6.830;2023-04-24T09:25:11;10.60;99.90
35645;DHT22;21764;52.042;6.830;2023-04-24T09:30:13;10.80;99.90
35645;DHT22;21764;52.042;6.830;2023-04-24T09:35:15;10.80;99.90
35645;DHT22;21764;52.042;6.830;2023-04-24T09:40:20;10.70;99.90
35645;DHT22;21764;52.042;6.830;2023-04-24T09:45:21;10.80;99.90
35645;DHT22;21764;52.042;6.830;2023-04-24T09:50:22;10.70;99.90
35645;DHT22;21764;52.042;6.830;2023-04-24T09:55:23;10.70;99.90
35645;DHT22;21764;52.042;6.830;2023-04-24T10:00:29;10.60;99.90
35645;DHT22;21764;52.042;6.830;2023-04-24T10:05:34;10.60;99.90
35645;DHT22;21764;52.042;6.830;2023-04-24T10:10:39;10.70;99.90
35645;DHT22;21764;52.042;6.830;2023-04-24T10:15:41;10.80;99.90
35645;DHT22;21764;52.042;6.830;2023-04-24T10:20:42;11.00;99.90
35645;DHT22;21764;52.042;6.830;2023-04-24T10:25:43;10.90;99.90
35645;DHT22;21764;52.042;6.830;2023-04-24T10:30:45;10.90;99.90
35645;DHT22;21764;52.042;6.830;2023-04-24T10:35:49;11.00;99.90
35645;DHT22;21764;52.042;6.830;2023-04-24T10:40:51;10.90;99.90
35645;DHT22;21764;52.042;6.830;2023-04-24T10:46:05;11.00;99.90
35645;DHT22;21764;52.042;6.830;2023-04-24T10:51:11;11.10;99.90
35645;DHT22;21764;52.042;6.830;2023-04-24T10:56:16;11.00;99.90
35645;DHT22;21764;52.042;6.830;2023-04-24T11:01:32;10.80;99.90
35645;DHT22;21764;52.042;6.830;2023-04-24T11:06:35;10.70;99.90
35645;DHT22;21764;52.042;6.830;2023-04-24T11:11:37;10.80;99.90
35645;DHT22;21764;52.042;6.830;2023-04-24T11:16:45;11.00;99.90
35645;DHT22;21764;52.042;6.830;2023-04-24T11:21:59;11.60;99.90
35645;DHT22;21764;52.042;6.830;2023-04-24T11:32:30;11.00;99.90
35645;DHT22;21764;52.042;6.830;2023-04-24T11:37:45;10.90;99.90
35645;DHT22;21764;52.042;6.830;2023-04-24T11:42:47;11.50;99.90
35645;DHT22;21764;52.042;6.830;2023-04-24T11:47:48;12.70;99.90
35645;DHT22;21764;52.042;6.830;2023-04-24T11:52:49;14.30;99.20
35645;DHT22;21764;52.042;6.830;2023-04-24T11:57:55;14.80;96.90
35645;DHT22;21764;52.042;6.830;2023-04-24T12:03:07;15.00;96.20
35645;DHT22;21764;52.042;6.830;2023-04-24T12:08:07;14.30;96.30
35645;DHT22;21764;52.042;6.830;2023-04-24T12:13:09;13.40;96.20
35645;DHT22;21764;52.042;6.830;2023-04-24T12:18:12;13.30;96.90
35645;DHT22;21764;52.042;6.830;2023-04-24T12:23:13;13.00;98.40
35645;DHT22;21764;52.042;6.830;2023-04-24T12:28:14;13.30;97.50
35645;DHT22;21764;52.042;6.830;2023-04-24T12:33:19;13.40;96.80
35645;DHT22;21764;52.042;6.830;2023-04-24T12:38:25;13.40;96.20
35645;DHT22;21764;52.042;6.830;2023-04-24T12:43:26;13.20;96.20
35645;DHT22;21764;52.042;6.830;2023-04-24T12:48:27;12.40;97.10
35645;DHT22;21764;52.042;6.830;2023-04-24T12:53:29;11.80;97.80
35645;DHT22;21764;52.042;6.830;2023-04-24T12:58:32;11.50;99.20
35645;DHT22;21764;52.042;6.830;2023-04-24T13:03:33;11.20;99.90
35645;DHT22;21764;52.042;6.830;2023-04-24T13:08:33;11.50;99.90
35645;DHT22;21764;52.042;6.830;2023-04-24T13:13:34;12.50;99.10
35645;DHT22;21764;52.042;6.830;2023-04-24T13:18:35;13.70;96.30
35645;DHT22;21764;52.042;6.830;2023-04-24T13:23:35;13.10;96.40
35645;DHT22;21764;52.042;6.830;2023-04-24T13:28:36;12.10;98.60
35645;DHT22;21764;52.042;6.830;2023-04-24T13:33:38;12.80;99.00
35645;DHT22;21764;52.042;6.830;2023-04-24T13:38:39;13.50;97.50
35645;DHT22;21764;52.042;6.830;2023-04-24T13:43:40;12.90;97.20
35645;DHT22;21764;52.042;6.830;2023-04-24T13:48:42;12.10;97.40
35645;DHT22;21764;52.042;6.830;2023-04-24T13:53:43;11.90;98.70
35645;DHT22;21764;52.042;6.830;2023-04-24T13:58:44;12.50;98.30
35645;DHT22;21764;52.042;6.830;2023-04-24T14:03:44;13.00;96.80
35645;DHT22;21764;52.042;6.830;2023-04-24T14:08:46;12.60;97.10
35645;DHT22;21764;52.042;6.830;2023-04-24T14:13:47;12.00;97.90
35645;DHT22;21764;52.042;6.830;2023-04-24T14:18:47;11.80;98.50
35645;DHT22;21764;52.042;6.830;2023-04-24T14:23:48;12.00;97.90
35645;DHT22;21764;52.042;6.830;2023-04-24T14:28:48;12.00;97.70
35645;DHT22;21764;52.042;6.830;2023-04-24T14:33:49;11.90;97.00
35645;DHT22;21764;52.042;6.830;2023-04-24T14:38:50;12.00;97.10
35645;DHT22;21764;52.042;6.830;2023-04-24T14:43:50;12.20;96.70
35645;DHT22;21764;52.042;6.830;2023-04-24T14:48:51;12.20;96.20
35645;DHT22;21764;52.042;6.830;2023-04-24T14:53:52;12.20;96.50
35645;DHT22;21764;52.042;6.830;2023-04-24T14:58:53;11.60;97.90
35645;DHT22;21764;52.042;6.830;2023-04-24T15:03:53;11.50;97.10
35645;DHT22;21764;52.042;6.830;2023-04-24T15:08:54;11.70;97.00
35645;DHT22;21764;52.042;6.830;2023-04-24T15:13:55;12.30;95.70
35645;DHT22;21764;52.042;6.830;2023-04-24T15:18:56;12.80;96.10
35645;DHT22;21764;52.042;6.830;2023-04-24T15:23:57;12.60;94.10
35645;DHT22;21764;52.042;6.830;2023-04-24T15:28:58;12.80;94.80
35645;DHT22;21764;52.042;6.830;2023-04-24T15:33:59;12.70;94.20
35645;DHT22;21764;52.042;6.830;2023-04-24T15:39:01;12.50;95.30
35645;DHT22;21764;52.042;6.830;2023-04-24T15:44:02;12.40;95.80
35645;DHT22;21764;52.042;6.830;2023-04-24T15:49:02;12.40;95.70
35645;DHT22;21764;52.042;6.830;2023-04-24T15:54:03;12.40;95.50
35645;DHT22;21764;52.042;6.830;2023-04-24T15:59:05;12.30;95.00
35645;DHT22;21764;52.042;6.830;2023-04-24T16:04:05;11.90;96.30
35645;DHT22;21764;52.042;6.830;2023-04-24T16:09:06;11.60;96.20
35645;DHT22;21764;52.042;6.830;2023-04-24T16:14:08;11.60;96.00
35645;DHT22;21764;52.042;6.830;2023-04-24T16:19:08;11.90;95.20
35645;DHT22;21764;52.042;6.830;2023-04-24T16:24:09;11.90;94.60
35645;DHT22;21764;52.042;6.830;2023-04-24T16:29:10;11.80;94.90
35645;DHT22;21764;52.042;6.830;2023-04-24T16:34:10;11.60;95.50
35645;DHT22;21764;52.042;6.830;2023-04-24T16:39:11;11.40;95.80
35645;DHT22;21764;52.042;6.830;2023-04-24T16:44:12;11.30;95.80
35645;DHT22;21764;52.042;6.830;2023-04-24T16:49:13;12.00;94.60
35645;DHT22;21764;52.042;6.830;2023-04-24T16:54:14;11.70;94.60
35645;DHT22;21764;52.042;6.830;2023-04-24T16:59:14;11.30;94.30
35645;DHT22;21764;52.042;6.830;2023-04-24T17:04:17;11.20;93.50
35645;DHT22;21764;52.042;6.830;2023-04-24T17:09:18;11.10;93.70
35645;DHT22;21764;52.042;6.830;2023-04-24T17:14:20;11.00;94.40
35645;DHT22;21764;52.042;6.830;2023-04-24T17:19:22;11.10;93.60
35645;DHT22;21764;52.042;6.830;2023-04-24T17:24:23;11.20;93.70
35645;DHT22;21764;52.042;6.830;2023-04-24T17:29:24;11.20;93.60
35645;DHT22;21764;52.042;6.830;2023-04-24T17:34:24;10.70;93.40
35645;DHT22;21764;52.042;6.830;2023-04-24T17:39:25;10.30;94.40
35645;DHT22;21764;52.042;6.830;2023-04-24T17:44:26;9.90;95.80
35645;DHT22;21764;52.042;6.830;2023-04-24T17:49:26;9.70;96.10
35645;DHT22;21764;52.042;6.830;2023-04-24T17:54:27;9.70;96.30
35645;DHT22;21764;52.042;6.830;2023-04-24T17:59:28;9.90;96.10
35645;DHT22;21764;52.042;6.830;2023-04-24T18:04:28;10.00;95.90
35645;DHT22;21764;52.042;6.830;2023-04-24T18:09:29;10.00;96.00
35645;DHT22;21764;52.042;6.830;2023-04-24T18:14:30;9.70;97.20
35645;DHT22;21764;52.042;6.830;2023-04-24T18:19:30;9.40;97.00
35645;DHT22;21764;52.042;6.830;2023-04-24T18:24:31;9.20;97.30
35645;DHT22;21764;52.042;6.830;2023-04-24T18:29:32;9.00;97.90
35645;DHT22;21764;52.042;6.830;2023-04-24T18:34:32;8.80;97.70
35645;DHT22;21764;52.042;6.830;2023-04-24T18:39:33;8.60;98.20
35645;DHT22;21764;52.042;6.830;2023-04-24T18:44:34;8.50;98.10
35645;DHT22;21764;52.042;6.830;2023-04-24T18:49:40;8.30;98.60
35645;DHT22;21764;52.042;6.830;2023-04-24T18:54:41;8.10;99.20
35645;DHT22;21764;52.042;6.830;2023-04-24T18:59:41;8.00;99.20
35645;DHT22;21764;52.042;6.830;2023-04-24T19:04:42;7.90;99.30
35645;DHT22;21764;52.042;6.830;2023-04-24T19:09:43;8.10;99.20
35645;DHT22;21764;52.042;6.830;2023-04-24T19:14:44;8.40;99.20
35645;DHT22;21764;52.042;6.830;2023-04-24T19:19:45;8.60;98.90
35645;DHT22;21764;52.042;6.830;2023-04-24T19:24:46;8.70;98.40
35645;DHT22;21764;52.042;6.830;2023-04-24T19:29:47;8.80;98.70
35645;DHT22;21764;52.042;6.830;2023-04-24T19:34:48;8.80;98.80
35645;DHT22;21764;52.042;6.830;2023-04-24T19:39:48;8.70;98.70
35645;DHT22;21764;52.042;6.830;2023-04-24T19:44:50;8.30;98.90
35645;DHT22;21764;52.042;6.830;2023-04-24T19:49:51;7.90;99.90
35645;DHT22;21764;52.042;6.830;2023-04-24T19:54:52;7.60;99.90
35645;DHT22;21764;52.042;6.830;2023-04-24T19:59:55;7.70;99.90
35645;DHT22;21764;52.042;6.830;2023-04-24T20:04:55;7.70;99.90
35645;DHT22;21764;52.042;6.830;2023-04-24T20:09:56;7.70;99.90
35645;DHT22;21764;52.042;6.830;2023-04-24T20:14:57;7.90;99.90
35645;DHT22;21764;52.042;6.830;2023-04-24T20:19:58;8.10;99.90
35645;DHT22;21764;52.042;6.830;2023-04-24T20:24:59;8.30;99.90
35645;DHT22;21764;52.042;6.830;2023-04-24T20:30:00;8.40;99.90
35645;DHT22;21764;52.042;6.830;2023-04-24T20:35:00;8.50;99.90
35645;DHT22;21764;52.042;6.830;2023-04-24T20:40:01;8.50;99.80
35645;DHT22;21764;52.042;6.830;2023-04-24T20:45:05;8.50;99.90
35645;DHT22;21764;52.042;6.830;2023-04-24T20:50:06;8.40;99.90
35645;DHT22;21764;52.042;6.830;2023-04-24T20:55:08;8.30;99.90
35645;DHT22;21764;52.042;6.830;2023-04-24T21:00:09;8.30;99.90
35645;DHT22;21764;52.042;6.830;2023-04-24T21:05:11;8.10;99.90
35645;DHT22;21764;52.042;6.830;2023-04-24T21:10:12;7.90;99.90
35645;DHT22;21764;52.042;6.830;2023-04-24T21:15:13;8.00;99.90
35645;DHT22;21764;52.042;6.830;2023-04-24T21:20:14;8.10;99.90
35645;DHT22;21764;52.042;6.830;2023-04-24T21:25:15;8.10;99.90
35645;DHT22;21764;52.042;6.830;2023-04-24T21:30:16;8.00;99.90
35645;DHT22;21764;52.042;6.830;2023-04-24T21:35:18;7.90;99.90
35645;DHT22;21764;52.042;6.830;2023-04-24T21:40:19;7.90;99.90
35645;DHT22;21764;52.042;6.830;2023-04-24T21:45:19;8.00;99.90
35645;DHT22;21764;52.042;6.830;2023-04-24T21:50:20;8.10;99.90
35645;DHT22;21764;52.042;6.830;2023-04-24T21:55:21;8.10;99.90
35645;DHT22;21764;52.042;6.830;2023-04-24T22:00:21;8.20;99.90
35645;DHT22;21764;52.042;6.830;2023-04-24T22:05:22;8.20;99.90
35645;DHT22;21764;52.042;6.830;2023-04-24T22:10:23;8.20;99.90
35645;DHT22;21764;52.042;6.830;2023-04-24T22:15:24;8.20;99.90
35645;DHT22;21764;52.042;6.830;2023-04-24T22:20:25;8.20;99.90
35645;DHT22;21764;52.042;6.830;2023-04-24T22:25:26;8.30;99.90
35645;DHT22;21764;52.042;6.830;2023-04-24T22:30:27;8.30;99.90
35645;DHT22;21764;52.042;6.830;2023-04-24T22:35:27;8.30;99.90
35645;DHT22;21764;52.042;6.830;2023-04-24T22:40:28;8.30;99.90
35645;DHT22;21764;52.042;6.830;2023-04-24T22:45:29;8.30;99.90
35645;DHT22;21764;52.042;6.830;2023-04-24T22:50:30;8.30;99.90
35645;DHT22;21764;52.042;6.830;2023-04-24T22:55:30;8.30;99.90
35645;DHT22;21764;52.042;6.830;2023-04-24T23:00:31;8.30;99.90
35645;DHT22;21764;52.042;6.830;2023-04-24T23:05:32;8.20;99.90
35645;DHT22;21764;52.042;6.830;2023-04-24T23:10:32;8.20;99.90
35645;DHT22;21764;52.042;6.830;2023-04-24T23:15:33;8.20;99.90
35645;DHT22;21764;52.042;6.830;2023-04-24T23:20:34;8.10;99.90
35645;DHT22;21764;52.042;6.830;2023-04-24T23:25:35;8.10;99.90
35645;DHT22;21764;52.042;6.830;2023-04-24T23:30:35;8.10;99.90
35645;DHT22;21764;52.042;6.830;2023-04-24T23:35:36;8.00;99.90
35645;DHT22;21764;52.042;6.830;2023-04-24T23:40:37;8.00;99.90
35645;DHT22;21764;52.042;6.830;2023-04-24T23:45:38;7.90;99.90
35645;DHT22;21764;52.042;6.830;2023-04-24T23:50:39;8.00;99.90
35645;DHT22;21764;52.042;6.830;2023-04-24T23:55:42;8.00;99.90
